sensor_id;sensor_type;location;lat;lon;timestamp;P1;durP1;ratioP1;P2;durP2;ratioP2
1358;SDS011;673;48.098;14.422;2022-10-20T00:00:25;1.33;;;1.23;;
1358;SDS011;673;48.098;14.422;2022-10-20T00:02:52;4.30;;;2.37;;
1358;SDS011;673;48.098;14.422;2022-10-20T00:05:19;2.10;;;2.00;;
1358;SDS011;673;48.098;14.422;2022-10-20T00:07:46;3.77;;;1.73;;
1358;SDS011;673;48.098;14.422;2022-10-20T00:10:13;6.93;;;2.17;;
1358;SDS011;673;48.098;14.422;2022-10-20T00:12:41;2.73;;;1.80;;
1358;SDS011;673;48.098;14.422;2022-10-20T00:15:08;3.40;;;2.20;;
1358;SDS011;673;48.098;14.422;2022-10-20T00:17:37;2.33;;;2.10;;
1358;SDS011;673;48.098;14.422;2022-10-20T00:20:04;4.80;;;1.80;;
1358;SDS011;673;48.098;14.422;2022-10-20T00:22:32;2.00;;;1.60;;
1358;SDS011;673;48.098;14.422;2022-10-20T00:24:59;1.87;;;1.60;;
1358;SDS011;673;48.098;14.422;2022-10-20T00:27:26;3.47;;;1.63;;
1358;SDS011;673;48.098;14.422;2022-10-20T00:29:53;2.53;;;1.47;;
1358;SDS011;673;48.098;14.422;2022-10-20T00:32:20;1.63;;;1.40;;
1358;SDS011;673;48.098;14.422;2022-10-20T00:34:48;4.10;;;1.97;;
1358;SDS011;673;48.098;14.422;2022-10-20T00:37:15;1.40;;;1.30;;
1358;SDS011;673;48.098;14.422;2022-10-20T00:39:42;1.87;;;1.73;;
1358;SDS011;673;48.098;14.422;2022-10-20T00:42:10;1.90;;;1.80;;
1358;SDS011;673;48.098;14.422;2022-10-20T00:47:31;2.83;;;1.60;;
1358;SDS011;673;48.098;14.422;2022-10-20T00:50:06;2.63;;;1.97;;
1358;SDS011;673;48.098;14.422;2022-10-20T00:52:37;1.47;;;1.23;;
1358;SDS011;673;48.098;14.422;2022-10-20T00:55:06;2.17;;;1.97;;
1358;SDS011;673;48.098;14.422;2022-10-20T00:57:35;3.90;;;1.53;;
1358;SDS011;673;48.098;14.422;2022-10-20T01:00:03;2.10;;;1.90;;
1358;SDS011;673;48.098;14.422;2022-10-20T01:02:32;4.30;;;1.53;;
1358;SDS011;673;48.098;14.422;2022-10-20T01:05:00;1.50;;;1.40;;
1358;SDS011;673;48.098;14.422;2022-10-20T01:07:29;1.40;;;1.30;;
1358;SDS011;673;48.098;14.422;2022-10-20T01:09:56;2.13;;;1.90;;
1358;SDS011;673;48.098;14.422;2022-10-20T01:12:25;3.03;;;1.90;;
1358;SDS011;673;48.098;14.422;2022-10-20T01:15:02;3.37;;;1.33;;
1358;SDS011;673;48.098;14.422;2022-10-20T01:17:38;5.47;;;2.33;;
1358;SDS011;673;48.098;14.422;2022-10-20T01:20:22;2.83;;;2.03;;
1358;SDS011;673;48.098;14.422;2022-10-20T01:26:20;2.70;;;1.57;;
1358;SDS011;673;48.098;14.422;2022-10-20T01:29:05;3.03;;;2.73;;
1358;SDS011;673;48.098;14.422;2022-10-20T01:31:39;1.53;;;1.03;;
1358;SDS011;673;48.098;14.422;2022-10-20T01:34:15;2.87;;;1.90;;
1358;SDS011;673;48.098;14.422;2022-10-20T01:36:48;3.43;;;2.67;;
1358;SDS011;673;48.098;14.422;2022-10-20T01:39:22;6.33;;;2.00;;
1358;SDS011;673;48.098;14.422;2022-10-20T01:41:53;2.00;;;1.73;;
1358;SDS011;673;48.098;14.422;2022-10-20T01:44:25;2.37;;;1.83;;
1358;SDS011;673;48.098;14.422;2022-10-20T01:46:54;3.80;;;2.43;;
1358;SDS011;673;48.098;14.422;2022-10-20T01:49:23;6.07;;;2.43;;
1358;SDS011;673;48.098;14.422;2022-10-20T01:51:51;4.37;;;2.50;;
1358;SDS011;673;48.098;14.422;2022-10-20T01:54:19;3.57;;;1.93;;
1358;SDS011;673;48.098;14.422;2022-10-20T01:56:50;2.30;;;1.87;;
1358;SDS011;673;48.098;14.422;2022-10-20T02:02:27;2.67;;;2.47;;
1358;SDS011;673;48.098;14.422;2022-10-20T02:05:09;2.80;;;2.37;;
1358;SDS011;673;48.098;14.422;2022-10-20T02:07:59;3.63;;;2.53;;
1358;SDS011;673;48.098;14.422;2022-10-20T02:10:38;3.07;;;2.77;;
1358;SDS011;673;48.098;14.422;2022-10-20T02:13:10;5.13;;;2.67;;
1358;SDS011;673;48.098;14.422;2022-10-20T02:15:40;3.07;;;1.93;;
1358;SDS011;673;48.098;14.422;2022-10-20T02:18:12;2.43;;;2.20;;
1358;SDS011;673;48.098;14.422;2022-10-20T02:20:42;5.70;;;2.97;;
1358;SDS011;673;48.098;14.422;2022-10-20T02:23:12;4.67;;;2.60;;
1358;SDS011;673;48.098;14.422;2022-10-20T02:25:39;3.73;;;2.67;;
1358;SDS011;673;48.098;14.422;2022-10-20T02:28:07;5.97;;;4.70;;
1358;SDS011;673;48.098;14.422;2022-10-20T02:30:37;4.23;;;3.23;;
1358;SDS011;673;48.098;14.422;2022-10-20T02:33:07;2.10;;;2.00;;
1358;SDS011;673;48.098;14.422;2022-10-20T02:35:35;3.57;;;2.50;;
1358;SDS011;673;48.098;14.422;2022-10-20T02:38:03;3.40;;;2.77;;
1358;SDS011;673;48.098;14.422;2022-10-20T02:40:30;4.50;;;3.00;;
1358;SDS011;673;48.098;14.422;2022-10-20T02:42:56;3.00;;;2.63;;
1358;SDS011;673;48.098;14.422;2022-10-20T02:45:23;3.33;;;2.80;;
1358;SDS011;673;48.098;14.422;2022-10-20T02:47:52;5.03;;;2.30;;
1358;SDS011;673;48.098;14.422;2022-10-20T02:50:19;3.73;;;2.67;;
1358;SDS011;673;48.098;14.422;2022-10-20T02:52:46;2.93;;;2.73;;
1358;SDS011;673;48.098;14.422;2022-10-20T02:55:12;3.00;;;2.70;;
1358;SDS011;673;48.098;14.422;2022-10-20T02:57:39;3.87;;;3.30;;
1358;SDS011;673;48.098;14.422;2022-10-20T03:00:07;2.73;;;2.13;;
1358;SDS011;673;48.098;14.422;2022-10-20T03:02:35;3.57;;;3.33;;
1358;SDS011;673;48.098;14.422;2022-10-20T03:05:04;4.10;;;3.70;;
1358;SDS011;673;48.098;14.422;2022-10-20T03:07:31;3.00;;;2.80;;
1358;SDS011;673;48.098;14.422;2022-10-20T03:09:58;3.70;;;3.37;;
1358;SDS011;673;48.098;14.422;2022-10-20T03:12:25;5.70;;;3.77;;
1358;SDS011;673;48.098;14.422;2022-10-20T03:14:52;3.73;;;3.20;;
1358;SDS011;673;48.098;14.422;2022-10-20T03:17:19;3.77;;;3.40;;
1358;SDS011;673;48.098;14.422;2022-10-20T03:19:46;4.30;;;2.87;;
1358;SDS011;673;48.098;14.422;2022-10-20T03:22:14;2.67;;;2.33;;
1358;SDS011;673;48.098;14.422;2022-10-20T03:24:41;4.60;;;4.13;;
1358;SDS011;673;48.098;14.422;2022-10-20T03:27:08;4.50;;;3.40;;
1358;SDS011;673;48.098;14.422;2022-10-20T03:29:35;3.37;;;3.07;;
1358;SDS011;673;48.098;14.422;2022-10-20T03:32:02;3.03;;;2.83;;
1358;SDS011;673;48.098;14.422;2022-10-20T03:34:29;4.73;;;3.97;;
1358;SDS011;673;48.098;14.422;2022-10-20T03:36:56;8.40;;;5.20;;
1358;SDS011;673;48.098;14.422;2022-10-20T03:39:24;20.13;;;3.30;;
1358;SDS011;673;48.098;14.422;2022-10-20T03:41:51;3.87;;;3.53;;
1358;SDS011;673;48.098;14.422;2022-10-20T03:44:18;2.70;;;2.50;;
1358;SDS011;673;48.098;14.422;2022-10-20T03:46:45;5.23;;;3.77;;
1358;SDS011;673;48.098;14.422;2022-10-20T03:49:12;4.07;;;3.60;;
1358;SDS011;673;48.098;14.422;2022-10-20T03:51:39;3.20;;;2.97;;
1358;SDS011;673;48.098;14.422;2022-10-20T03:54:06;3.50;;;3.30;;
1358;SDS011;673;48.098;14.422;2022-10-20T03:56:34;3.53;;;3.23;;
1358;SDS011;673;48.098;14.422;2022-10-20T03:59:01;3.20;;;2.70;;
1358;SDS011;673;48.098;14.422;2022-10-20T04:01:29;9.93;;;3.77;;
1358;SDS011;673;48.098;14.422;2022-10-20T04:03:57;4.10;;;3.40;;
1358;SDS011;673;48.098;14.422;2022-10-20T04:06:24;4.33;;;3.13;;
1358;SDS011;673;48.098;14.422;2022-10-20T04:08:51;3.40;;;3.10;;
1358;SDS011;673;48.098;14.422;2022-10-20T04:11:18;3.10;;;2.83;;
1358;SDS011;673;48.098;14.422;2022-10-20T04:13:46;6.63;;;3.30;;
1358;SDS011;673;48.098;14.422;2022-10-20T04:16:13;3.60;;;3.30;;
1358;SDS011;673;48.098;14.422;2022-10-20T04:18:40;3.97;;;2.97;;
1358;SDS011;673;48.098;14.422;2022-10-20T04:21:07;4.07;;;3.67;;
1358;SDS011;673;48.098;14.422;2022-10-20T04:23:34;3.80;;;3.50;;
1358;SDS011;673;48.098;14.422;2022-10-20T04:26:06;3.53;;;2.67;;
1358;SDS011;673;48.098;14.422;2022-10-20T04:28:34;5.00;;;4.50;;
1358;SDS011;673;48.098;14.422;2022-10-20T04:31:03;3.57;;;3.07;;
1358;SDS011;673;48.098;14.422;2022-10-20T04:33:30;5.07;;;3.47;;
1358;SDS011;673;48.098;14.422;2022-10-20T04:35:58;6.10;;;2.63;;
1358;SDS011;673;48.098;14.422;2022-10-20T04:38:26;6.43;;;4.00;;
1358;SDS011;673;48.098;14.422;2022-10-20T04:40:55;4.17;;;3.60;;
1358;SDS011;673;48.098;14.422;2022-10-20T04:43:22;3.43;;;3.20;;
1358;SDS011;673;48.098;14.422;2022-10-20T04:45:50;5.80;;;3.47;;
1358;SDS011;673;48.098;14.422;2022-10-20T04:48:19;5.63;;;3.63;;
1358;SDS011;673;48.098;14.422;2022-10-20T04:50:46;5.10;;;3.27;;
1358;SDS011;673;48.098;14.422;2022-10-20T04:53:13;3.43;;;3.23;;
1358;SDS011;673;48.098;14.422;2022-10-20T04:55:40;5.87;;;4.50;;
1358;SDS011;673;48.098;14.422;2022-10-20T04:58:07;3.77;;;3.43;;
1358;SDS011;673;48.098;14.422;2022-10-20T05:00:35;4.17;;;3.77;;
1358;SDS011;673;48.098;14.422;2022-10-20T05:03:03;5.10;;;4.60;;
1358;SDS011;673;48.098;14.422;2022-10-20T05:05:31;5.73;;;3.10;;
1358;SDS011;673;48.098;14.422;2022-10-20T05:07:58;3.47;;;3.17;;
1358;SDS011;673;48.098;14.422;2022-10-20T05:10:25;5.93;;;3.57;;
1358;SDS011;673;48.098;14.422;2022-10-20T05:12:52;3.53;;;2.97;;
1358;SDS011;673;48.098;14.422;2022-10-20T05:15:18;6.93;;;3.37;;
1358;SDS011;673;48.098;14.422;2022-10-20T05:17:45;5.40;;;3.60;;
1358;SDS011;673;48.098;14.422;2022-10-20T05:20:12;4.00;;;2.83;;
1358;SDS011;673;48.098;14.422;2022-10-20T05:22:41;3.90;;;3.60;;
1358;SDS011;673;48.098;14.422;2022-10-20T05:25:08;4.93;;;3.40;;
1358;SDS011;673;48.098;14.422;2022-10-20T05:27:35;4.33;;;3.93;;
1358;SDS011;673;48.098;14.422;2022-10-20T05:30:02;3.07;;;2.87;;
1358;SDS011;673;48.098;14.422;2022-10-20T05:32:29;3.73;;;3.23;;
1358;SDS011;673;48.098;14.422;2022-10-20T05:34:56;5.90;;;4.40;;
1358;SDS011;673;48.098;14.422;2022-10-20T05:37:23;7.20;;;3.57;;
1358;SDS011;673;48.098;14.422;2022-10-20T05:39:51;4.53;;;3.90;;
1358;SDS011;673;48.098;14.422;2022-10-20T05:42:18;4.10;;;3.70;;
1358;SDS011;673;48.098;14.422;2022-10-20T05:44:45;5.13;;;3.30;;
1358;SDS011;673;48.098;14.422;2022-10-20T05:47:12;6.20;;;4.23;;
1358;SDS011;673;48.098;14.422;2022-10-20T05:49:39;3.83;;;3.40;;
1358;SDS011;673;48.098;14.422;2022-10-20T05:52:06;4.50;;;4.10;;
1358;SDS011;673;48.098;14.422;2022-10-20T05:54:33;3.73;;;3.40;;
1358;SDS011;673;48.098;14.422;2022-10-20T05:57:01;7.30;;;3.43;;
1358;SDS011;673;48.098;14.422;2022-10-20T05:59:28;4.23;;;3.23;;
1358;SDS011;673;48.098;14.422;2022-10-20T06:01:56;5.20;;;3.50;;
1358;SDS011;673;48.098;14.422;2022-10-20T06:04:23;6.20;;;2.90;;
1358;SDS011;673;48.098;14.422;2022-10-20T06:06:52;3.13;;;2.77;;
1358;SDS011;673;48.098;14.422;2022-10-20T06:09:20;13.03;;;3.10;;
1358;SDS011;673;48.098;14.422;2022-10-20T06:11:48;7.37;;;4.87;;
1358;SDS011;673;48.098;14.422;2022-10-20T06:14:17;5.20;;;2.53;;
1358;SDS011;673;48.098;14.422;2022-10-20T06:16:48;3.40;;;3.10;;
1358;SDS011;673;48.098;14.422;2022-10-20T06:19:16;5.37;;;3.70;;
1358;SDS011;673;48.098;14.422;2022-10-20T06:21:43;4.27;;;3.30;;
1358;SDS011;673;48.098;14.422;2022-10-20T06:24:10;7.37;;;2.93;;
1358;SDS011;673;48.098;14.422;2022-10-20T06:26:38;4.23;;;3.03;;
1358;SDS011;673;48.098;14.422;2022-10-20T06:29:06;2.30;;;2.10;;
1358;SDS011;673;48.098;14.422;2022-10-20T06:31:37;6.87;;;4.17;;
1358;SDS011;673;48.098;14.422;2022-10-20T06:34:06;4.40;;;2.50;;
1358;SDS011;673;48.098;14.422;2022-10-20T06:36:34;5.57;;;5.17;;
1358;SDS011;673;48.098;14.422;2022-10-20T06:39:02;3.40;;;2.87;;
1358;SDS011;673;48.098;14.422;2022-10-20T06:41:31;2.63;;;2.37;;
1358;SDS011;673;48.098;14.422;2022-10-20T06:43:58;3.90;;;2.83;;
1358;SDS011;673;48.098;14.422;2022-10-20T06:46:26;3.67;;;3.17;;
1358;SDS011;673;48.098;14.422;2022-10-20T06:48:55;5.03;;;2.30;;
1358;SDS011;673;48.098;14.422;2022-10-20T06:51:24;6.40;;;3.40;;
1358;SDS011;673;48.098;14.422;2022-10-20T06:53:52;3.67;;;3.20;;
1358;SDS011;673;48.098;14.422;2022-10-20T06:56:19;3.70;;;3.40;;
1358;SDS011;673;48.098;14.422;2022-10-20T06:58:48;3.63;;;3.33;;
1358;SDS011;673;48.098;14.422;2022-10-20T07:01:16;4.97;;;3.47;;
1358;SDS011;673;48.098;14.422;2022-10-20T07:03:44;4.03;;;3.70;;
1358;SDS011;673;48.098;14.422;2022-10-20T07:06:14;4.10;;;3.70;;
1358;SDS011;673;48.098;14.422;2022-10-20T07:08:42;2.90;;;2.67;;
1358;SDS011;673;48.098;14.422;2022-10-20T07:11:10;4.07;;;3.33;;
1358;SDS011;673;48.098;14.422;2022-10-20T07:13:39;4.97;;;2.67;;
1358;SDS011;673;48.098;14.422;2022-10-20T07:16:06;4.47;;;4.07;;
1358;SDS011;673;48.098;14.422;2022-10-20T07:18:34;7.33;;;2.80;;
1358;SDS011;673;48.098;14.422;2022-10-20T07:21:03;4.00;;;3.50;;
1358;SDS011;673;48.098;14.422;2022-10-20T07:23:32;5.77;;;2.83;;
1358;SDS011;673;48.098;14.422;2022-10-20T07:26:00;3.03;;;2.80;;
1358;SDS011;673;48.098;14.422;2022-10-20T07:28:38;3.27;;;2.53;;
1358;SDS011;673;48.098;14.422;2022-10-20T07:31:07;2.77;;;2.50;;
1358;SDS011;673;48.098;14.422;2022-10-20T07:33:35;7.73;;;3.40;;
1358;SDS011;673;48.098;14.422;2022-10-20T07:36:09;6.73;;;2.80;;
1358;SDS011;673;48.098;14.422;2022-10-20T07:38:36;7.30;;;3.00;;
1358;SDS011;673;48.098;14.422;2022-10-20T07:41:03;2.97;;;2.73;;
1358;SDS011;673;48.098;14.422;2022-10-20T07:43:30;5.80;;;3.20;;
1358;SDS011;673;48.098;14.422;2022-10-20T07:45:59;3.50;;;3.20;;
1358;SDS011;673;48.098;14.422;2022-10-20T07:48:26;3.97;;;3.20;;
1358;SDS011;673;48.098;14.422;2022-10-20T07:50:53;5.37;;;3.10;;
1358;SDS011;673;48.098;14.422;2022-10-20T07:53:19;3.70;;;3.23;;
1358;SDS011;673;48.098;14.422;2022-10-20T07:55:46;4.30;;;2.97;;
1358;SDS011;673;48.098;14.422;2022-10-20T07:58:14;3.47;;;2.90;;
1358;SDS011;673;48.098;14.422;2022-10-20T08:00:41;6.23;;;3.57;;
1358;SDS011;673;48.098;14.422;2022-10-20T08:03:09;3.17;;;2.37;;
1358;SDS011;673;48.098;14.422;2022-10-20T08:05:36;6.37;;;4.20;;
1358;SDS011;673;48.098;14.422;2022-10-20T08:08:03;5.00;;;2.77;;
1358;SDS011;673;48.098;14.422;2022-10-20T08:10:30;7.60;;;3.40;;
1358;SDS011;673;48.098;14.422;2022-10-20T08:12:57;9.90;;;3.67;;
1358;SDS011;673;48.098;14.422;2022-10-20T08:15:24;3.80;;;3.50;;
1358;SDS011;673;48.098;14.422;2022-10-20T08:17:51;10.60;;;2.40;;
1358;SDS011;673;48.098;14.422;2022-10-20T08:20:19;3.50;;;3.30;;
1358;SDS011;673;48.098;14.422;2022-10-20T08:22:46;13.10;;;3.60;;
1358;SDS011;673;48.098;14.422;2022-10-20T08:25:14;5.60;;;3.40;;
1358;SDS011;673;48.098;14.422;2022-10-20T08:27:41;3.70;;;3.40;;
1358;SDS011;673;48.098;14.422;2022-10-20T08:30:08;4.60;;;4.10;;
1358;SDS011;673;48.098;14.422;2022-10-20T08:32:36;4.17;;;3.77;;
1358;SDS011;673;48.098;14.422;2022-10-20T08:35:03;4.03;;;3.63;;
1358;SDS011;673;48.098;14.422;2022-10-20T08:37:32;5.97;;;4.30;;
1358;SDS011;673;48.098;14.422;2022-10-20T08:40:00;4.40;;;3.97;;
1358;SDS011;673;48.098;14.422;2022-10-20T08:42:27;5.10;;;4.67;;
1358;SDS011;673;48.098;14.422;2022-10-20T08:44:56;4.17;;;3.77;;
1358;SDS011;673;48.098;14.422;2022-10-20T08:47:25;4.80;;;4.23;;
1358;SDS011;673;48.098;14.422;2022-10-20T08:49:56;7.17;;;3.73;;
1358;SDS011;673;48.098;14.422;2022-10-20T08:52:24;6.17;;;3.60;;
1358;SDS011;673;48.098;14.422;2022-10-20T08:54:53;5.20;;;3.77;;
1358;SDS011;673;48.098;14.422;2022-10-20T08:57:22;4.87;;;4.43;;
1358;SDS011;673;48.098;14.422;2022-10-20T08:59:52;5.60;;;3.93;;
1358;SDS011;673;48.098;14.422;2022-10-20T09:02:21;5.43;;;3.73;;
1358;SDS011;673;48.098;14.422;2022-10-20T09:04:49;4.80;;;4.40;;
1358;SDS011;673;48.098;14.422;2022-10-20T09:07:21;5.87;;;3.33;;
1358;SDS011;673;48.098;14.422;2022-10-20T09:09:51;4.40;;;4.10;;
1358;SDS011;673;48.098;14.422;2022-10-20T09:12:23;6.93;;;4.80;;
1358;SDS011;673;48.098;14.422;2022-10-20T09:14:50;5.83;;;5.33;;
1358;SDS011;673;48.098;14.422;2022-10-20T09:17:17;5.83;;;4.97;;
1358;SDS011;673;48.098;14.422;2022-10-20T09:19:45;4.53;;;4.13;;
1358;SDS011;673;48.098;14.422;2022-10-20T09:22:18;5.47;;;4.43;;
1358;SDS011;673;48.098;14.422;2022-10-20T09:24:47;7.10;;;4.97;;
1358;SDS011;673;48.098;14.422;2022-10-20T09:27:18;8.60;;;4.13;;
1358;SDS011;673;48.098;14.422;2022-10-20T09:29:48;5.07;;;4.37;;
1358;SDS011;673;48.098;14.422;2022-10-20T09:32:16;5.13;;;4.63;;
1358;SDS011;673;48.098;14.422;2022-10-20T09:34:46;5.70;;;5.23;;
1358;SDS011;673;48.098;14.422;2022-10-20T09:37:14;5.90;;;5.40;;
1358;SDS011;673;48.098;14.422;2022-10-20T09:39:49;5.40;;;3.87;;
1358;SDS011;673;48.098;14.422;2022-10-20T09:42:21;5.17;;;4.67;;
1358;SDS011;673;48.098;14.422;2022-10-20T09:44:51;5.00;;;4.50;;
1358;SDS011;673;48.098;14.422;2022-10-20T09:47:21;8.37;;;4.10;;
1358;SDS011;673;48.098;14.422;2022-10-20T09:49:51;4.20;;;3.40;;
1358;SDS011;673;48.098;14.422;2022-10-20T09:52:22;7.40;;;4.83;;
1358;SDS011;673;48.098;14.422;2022-10-20T09:54:57;3.50;;;3.20;;
1358;SDS011;673;48.098;14.422;2022-10-20T09:57:28;3.70;;;3.43;;
1358;SDS011;673;48.098;14.422;2022-10-20T09:59:56;4.93;;;4.53;;
1358;SDS011;673;48.098;14.422;2022-10-20T10:02:28;5.63;;;4.30;;
1358;SDS011;673;48.098;14.422;2022-10-20T10:05:13;4.60;;;4.10;;
1358;SDS011;673;48.098;14.422;2022-10-20T10:07:44;5.80;;;4.53;;
1358;SDS011;673;48.098;14.422;2022-10-20T10:10:23;4.60;;;3.53;;
1358;SDS011;673;48.098;14.422;2022-10-20T10:12:53;4.27;;;3.43;;
1358;SDS011;673;48.098;14.422;2022-10-20T10:15:25;4.33;;;3.80;;
1358;SDS011;673;48.098;14.422;2022-10-20T10:17:55;3.33;;;2.97;;
1358;SDS011;673;48.098;14.422;2022-10-20T10:20:33;3.50;;;3.20;;
1358;SDS011;673;48.098;14.422;2022-10-20T10:23:15;4.80;;;3.53;;
1358;SDS011;673;48.098;14.422;2022-10-20T10:25:45;5.50;;;5.00;;
1358;SDS011;673;48.098;14.422;2022-10-20T10:28:21;5.13;;;3.60;;
1358;SDS011;673;48.098;14.422;2022-10-20T10:31:19;4.37;;;3.87;;
1358;SDS011;673;48.098;14.422;2022-10-20T10:33:55;9.07;;;3.60;;
1358;SDS011;673;48.098;14.422;2022-10-20T10:36:45;3.97;;;3.57;;
1358;SDS011;673;48.098;14.422;2022-10-20T10:39:13;5.17;;;3.80;;
1358;SDS011;673;48.098;14.422;2022-10-20T10:44:34;4.00;;;3.70;;
1358;SDS011;673;48.098;14.422;2022-10-20T10:47:12;3.50;;;3.07;;
1358;SDS011;673;48.098;14.422;2022-10-20T10:49:53;5.20;;;3.10;;
1358;SDS011;673;48.098;14.422;2022-10-20T10:52:30;4.23;;;3.83;;
1358;SDS011;673;48.098;14.422;2022-10-20T10:55:11;3.63;;;3.33;;
1358;SDS011;673;48.098;14.422;2022-10-20T10:57:45;4.00;;;3.67;;
1358;SDS011;673;48.098;14.422;2022-10-20T11:00:25;3.53;;;3.23;;
1358;SDS011;673;48.098;14.422;2022-10-20T11:03:02;5.00;;;4.50;;
1358;SDS011;673;48.098;14.422;2022-10-20T11:05:50;4.17;;;3.87;;
1358;SDS011;673;48.098;14.422;2022-10-20T11:08:28;4.23;;;3.63;;
1358;SDS011;673;48.098;14.422;2022-10-20T11:11:05;4.63;;;4.23;;
1358;SDS011;673;48.098;14.422;2022-10-20T11:13:39;3.50;;;3.20;;
1358;SDS011;673;48.098;14.422;2022-10-20T11:16:21;6.27;;;5.67;;
1358;SDS011;673;48.098;14.422;2022-10-20T11:19:15;6.13;;;5.20;;
1358;SDS011;673;48.098;14.422;2022-10-20T11:22:03;5.27;;;4.10;;
1358;SDS011;673;48.098;14.422;2022-10-20T11:24:44;6.30;;;5.10;;
1358;SDS011;673;48.098;14.422;2022-10-20T11:27:20;4.30;;;3.67;;
1358;SDS011;673;48.098;14.422;2022-10-20T11:29:51;10.03;;;4.93;;
1358;SDS011;673;48.098;14.422;2022-10-20T11:32:25;5.43;;;3.50;;
1358;SDS011;673;48.098;14.422;2022-10-20T11:34:58;6.33;;;4.03;;
1358;SDS011;673;48.098;14.422;2022-10-20T11:37:29;4.30;;;4.00;;
1358;SDS011;673;48.098;14.422;2022-10-20T11:40:02;4.77;;;4.33;;
1358;SDS011;673;48.098;14.422;2022-10-20T11:42:40;4.27;;;3.90;;
1358;SDS011;673;48.098;14.422;2022-10-20T11:45:20;5.90;;;4.67;;
1358;SDS011;673;48.098;14.422;2022-10-20T11:47:55;5.80;;;4.50;;
1358;SDS011;673;48.098;14.422;2022-10-20T11:50:27;4.17;;;3.80;;
1358;SDS011;673;48.098;14.422;2022-10-20T11:53:02;4.83;;;4.10;;
1358;SDS011;673;48.098;14.422;2022-10-20T11:55:56;5.53;;;5.03;;
1358;SDS011;673;48.098;14.422;2022-10-20T11:58:53;5.27;;;4.67;;
1358;SDS011;673;48.098;14.422;2022-10-20T12:01:34;5.47;;;5.00;;
1358;SDS011;673;48.098;14.422;2022-10-20T12:10:02;8.00;;;4.33;;
1358;SDS011;673;48.098;14.422;2022-10-20T12:12:56;9.03;;;4.23;;
1358;SDS011;673;48.098;14.422;2022-10-20T12:15:27;5.83;;;5.33;;
1358;SDS011;673;48.098;14.422;2022-10-20T12:17:54;6.10;;;5.23;;
1358;SDS011;673;48.098;14.422;2022-10-20T12:26:36;6.60;;;5.23;;
1358;SDS011;673;48.098;14.422;2022-10-20T12:29:47;7.70;;;5.80;;
1358;SDS011;673;48.098;14.422;2022-10-20T12:38:22;5.03;;;4.60;;
1358;SDS011;673;48.098;14.422;2022-10-20T12:40:53;6.20;;;5.60;;
1358;SDS011;673;48.098;14.422;2022-10-20T12:43:24;5.70;;;5.20;;
1358;SDS011;673;48.098;14.422;2022-10-20T12:46:08;6.27;;;5.33;;
1358;SDS011;673;48.098;14.422;2022-10-20T12:48:39;7.30;;;5.67;;
1358;SDS011;673;48.098;14.422;2022-10-20T12:51:20;5.50;;;4.93;;
1358;SDS011;673;48.098;14.422;2022-10-20T12:53:55;7.40;;;5.10;;
1358;SDS011;673;48.098;14.422;2022-10-20T12:56:26;6.80;;;5.03;;
1358;SDS011;673;48.098;14.422;2022-10-20T13:02:18;6.00;;;5.43;;
1358;SDS011;673;48.098;14.422;2022-10-20T13:04:55;6.30;;;5.70;;
1358;SDS011;673;48.098;14.422;2022-10-20T13:10:29;6.03;;;5.43;;
1358;SDS011;673;48.098;14.422;2022-10-20T13:15:57;5.80;;;5.03;;
1358;SDS011;673;48.098;14.422;2022-10-20T13:18:26;8.27;;;5.40;;
1358;SDS011;673;48.098;14.422;2022-10-20T13:20:57;4.70;;;4.30;;
1358;SDS011;673;48.098;14.422;2022-10-20T13:23:29;5.00;;;4.50;;
1358;SDS011;673;48.098;14.422;2022-10-20T13:26:05;13.40;;;5.90;;
1358;SDS011;673;48.098;14.422;2022-10-20T13:28:42;7.10;;;4.70;;
1358;SDS011;673;48.098;14.422;2022-10-20T13:31:14;8.00;;;6.03;;
1358;SDS011;673;48.098;14.422;2022-10-20T13:33:49;4.97;;;4.57;;
1358;SDS011;673;48.098;14.422;2022-10-20T13:36:28;6.47;;;4.87;;
1358;SDS011;673;48.098;14.422;2022-10-20T13:39:14;9.93;;;5.87;;
1358;SDS011;673;48.098;14.422;2022-10-20T13:41:48;5.83;;;5.20;;
1358;SDS011;673;48.098;14.422;2022-10-20T13:44:23;5.43;;;4.93;;
1358;SDS011;673;48.098;14.422;2022-10-20T13:46:56;4.47;;;4.03;;
1358;SDS011;673;48.098;14.422;2022-10-20T13:49:36;5.80;;;5.30;;
1358;SDS011;673;48.098;14.422;2022-10-20T13:52:13;7.07;;;4.37;;
1358;SDS011;673;48.098;14.422;2022-10-20T13:54:42;6.27;;;5.53;;
1358;SDS011;673;48.098;14.422;2022-10-20T13:57:17;6.33;;;5.73;;
1358;SDS011;673;48.098;14.422;2022-10-20T13:59:55;6.80;;;5.10;;
1358;SDS011;673;48.098;14.422;2022-10-20T14:02:24;5.87;;;4.97;;
1358;SDS011;673;48.098;14.422;2022-10-20T14:05:03;4.43;;;4.00;;
1358;SDS011;673;48.098;14.422;2022-10-20T14:07:36;5.17;;;4.33;;
1358;SDS011;673;48.098;14.422;2022-10-20T14:10:05;6.57;;;4.87;;
1358;SDS011;673;48.098;14.422;2022-10-20T14:12:34;5.70;;;5.20;;
1358;SDS011;673;48.098;14.422;2022-10-20T14:15:02;5.43;;;4.93;;
1358;SDS011;673;48.098;14.422;2022-10-20T14:17:31;6.40;;;5.80;;
1358;SDS011;673;48.098;14.422;2022-10-20T14:20:08;6.80;;;5.80;;
1358;SDS011;673;48.098;14.422;2022-10-20T14:22:43;6.23;;;5.53;;
1358;SDS011;673;48.098;14.422;2022-10-20T14:25:11;4.93;;;4.43;;
1358;SDS011;673;48.098;14.422;2022-10-20T14:27:39;6.50;;;5.80;;
1358;SDS011;673;48.098;14.422;2022-10-20T14:30:12;6.53;;;6.00;;
1358;SDS011;673;48.098;14.422;2022-10-20T14:32:41;5.20;;;4.80;;
1358;SDS011;673;48.098;14.422;2022-10-20T14:35:14;6.10;;;5.33;;
1358;SDS011;673;48.098;14.422;2022-10-20T14:37:49;7.97;;;7.17;;
1358;SDS011;673;48.098;14.422;2022-10-20T14:40:20;7.73;;;6.60;;
1358;SDS011;673;48.098;14.422;2022-10-20T14:42:50;14.60;;;7.67;;
1358;SDS011;673;48.098;14.422;2022-10-20T14:45:22;9.63;;;7.00;;
1358;SDS011;673;48.098;14.422;2022-10-20T14:47:51;10.93;;;9.10;;
1358;SDS011;673;48.098;14.422;2022-10-20T14:50:25;8.80;;;7.43;;
1358;SDS011;673;48.098;14.422;2022-10-20T14:52:57;6.37;;;5.80;;
1358;SDS011;673;48.098;14.422;2022-10-20T14:55:42;5.23;;;4.67;;
1358;SDS011;673;48.098;14.422;2022-10-20T14:58:28;24.77;;;6.90;;
1358;SDS011;673;48.098;14.422;2022-10-20T15:01:12;4.63;;;4.30;;
1358;SDS011;673;48.098;14.422;2022-10-20T15:04:01;6.63;;;5.10;;
1358;SDS011;673;48.098;14.422;2022-10-20T15:06:30;7.33;;;6.20;;
1358;SDS011;673;48.098;14.422;2022-10-20T15:08:57;8.63;;;5.80;;
1358;SDS011;673;48.098;14.422;2022-10-20T15:11:25;7.80;;;7.20;;
1358;SDS011;673;48.098;14.422;2022-10-20T15:13:57;7.07;;;4.40;;
1358;SDS011;673;48.098;14.422;2022-10-20T15:16:33;6.80;;;5.43;;
1358;SDS011;673;48.098;14.422;2022-10-20T15:22:08;4.93;;;4.33;;
1358;SDS011;673;48.098;14.422;2022-10-20T15:24:36;7.73;;;5.17;;
1358;SDS011;673;48.098;14.422;2022-10-20T15:27:04;6.10;;;5.17;;
1358;SDS011;673;48.098;14.422;2022-10-20T15:29:33;4.87;;;4.43;;
1358;SDS011;673;48.098;14.422;2022-10-20T15:32:00;4.47;;;4.10;;
1358;SDS011;673;48.098;14.422;2022-10-20T15:34:27;5.50;;;5.00;;
1358;SDS011;673;48.098;14.422;2022-10-20T15:36:54;6.23;;;4.87;;
1358;SDS011;673;48.098;14.422;2022-10-20T15:39:21;5.63;;;4.57;;
1358;SDS011;673;48.098;14.422;2022-10-20T15:41:47;8.80;;;4.30;;
1358;SDS011;673;48.098;14.422;2022-10-20T15:44:15;4.83;;;4.07;;
1358;SDS011;673;48.098;14.422;2022-10-20T15:46:45;5.63;;;4.17;;
1358;SDS011;673;48.098;14.422;2022-10-20T15:49:12;5.43;;;5.00;;
1358;SDS011;673;48.098;14.422;2022-10-20T15:51:40;5.10;;;4.23;;
1358;SDS011;673;48.098;14.422;2022-10-20T15:54:09;4.00;;;3.70;;
1358;SDS011;673;48.098;14.422;2022-10-20T15:56:38;6.47;;;4.63;;
1358;SDS011;673;48.098;14.422;2022-10-20T15:59:05;5.10;;;4.53;;
1358;SDS011;673;48.098;14.422;2022-10-20T16:01:32;9.73;;;4.23;;
1358;SDS011;673;48.098;14.422;2022-10-20T16:04:01;4.83;;;4.40;;
1358;SDS011;673;48.098;14.422;2022-10-20T16:06:40;3.80;;;3.50;;
1358;SDS011;673;48.098;14.422;2022-10-20T16:09:07;4.17;;;3.87;;
1358;SDS011;673;48.098;14.422;2022-10-20T16:11:35;5.50;;;4.93;;
1358;SDS011;673;48.098;14.422;2022-10-20T16:14:02;4.57;;;3.97;;
1358;SDS011;673;48.098;14.422;2022-10-20T16:16:30;4.53;;;4.23;;
1358;SDS011;673;48.098;14.422;2022-10-20T16:18:57;5.13;;;4.50;;